Time;durP1;ratioP1;P1;durP2;ratioP2;P2;SDS_P1;SDS_P2;PMS_P1;PMS_P2;Temp;Humidity;BMP_temperature;BMP_pressure;BME280_temperature;BME280_humidity;BME280_pressure;Samples;Min_cycle;Max_cycle;Signal;HPM_P1;HPM_P2
2021/07/17 00:02:04;;;;;;;46.08;24.05;;;17.60;99.90;;;;;;4951120;28;20550;-79
2021/07/17 00:04:38;;;;;;;43.25;24.15;;;17.70;99.90;;;;;;4937310;28;20065;-78
2021/07/17 00:07:15;;;;;;;58.58;25.73;;;17.60;99.90;;;;;;4951864;28;20058;-77
2021/07/17 00:09:49;;;;;;;48.33;26.73;;;17.70;99.90;;;;;;4922556;29;20397;-78
2021/07/17 00:12:16;;;;;;;47.78;25.40;;;17.70;99.90;;;;;;4944199;28;20052;-77
2021/07/17 00:14:44;;;;;;;51.65;26.88;;;17.70;99.90;;;;;;4930503;29;20066;-77
2021/07/17 00:17:11;;;;;;;47.90;27.20;;;17.70;99.90;;;;;;4931551;29;20051;-79
2021/07/17 00:19:38;;;;;;;50.60;26.90;;;17.60;99.90;;;;;;4954860;28;20054;-80
2021/07/17 00:22:05;;;;;;;52.47;27.33;;;17.50;99.90;;;;;;4966169;28;20057;-78
2021/07/17 00:24:32;;;;;;;46.15;26.83;;;17.60;99.90;;;;;;4940118;28;20134;-78
2021/07/17 00:26:59;;;;;;;46.47;25.88;;;17.50;99.90;;;;;;4950798;28;20060;-79
2021/07/17 00:29:26;;;;;;;54.55;27.38;;;17.60;99.90;;;;;;4952704;28;20503;-78
2021/07/17 00:31:54;;;;;;;40.95;25.80;;;17.60;99.90;;;;;;4934762;28;20058;-78
2021/07/17 00:34:22;;;;;;;47.40;26.00;;;17.50;99.90;;;;;;4954697;28;20109;-78
2021/07/17 00:36:49;;;;;;;56.08;26.02;;;17.60;99.90;;;;;;4932422;29;20057;-81
2021/07/17 00:39:16;;;;;;;50.78;27.88;;;17.60;99.90;;;;;;4949065;28;20408;-80
2021/07/17 00:41:42;;;;;;;48.58;25.15;;;17.60;99.90;;;;;;4931644;29;20167;-79
2021/07/17 00:44:09;;;;;;;47.35;26.02;;;17.60;99.90;;;;;;4932442;28;20160;-80
2021/07/17 00:46:37;;;;;;;54.88;26.67;;;17.50;99.90;;;;;;4932080;29;20047;-77
2021/07/17 00:49:08;;;;;;;45.15;25.58;;;17.50;99.90;;;;;;4929038;28;20061;-79
2021/07/17 00:51:35;;;;;;;47.67;25.05;;;17.40;99.90;;;;;;4932174;28;20051;-78
2021/07/17 00:54:02;;;;;;;48.13;26.15;;;17.50;99.90;;;;;;4948054;29;20047;-77
2021/07/17 00:56:30;;;;;;;50.15;26.08;;;17.50;99.90;;;;;;4962233;28;20129;-78
2021/07/17 00:59:00;;;;;;;47.28;25.55;;;17.50;99.90;;;;;;4948941;28;20654;-77
2021/07/17 01:01:31;;;;;;;46.58;26.40;;;17.40;99.90;;;;;;4950326;28;20499;-79
2021/07/17 01:03:58;;;;;;;46.03;27.88;;;17.40;99.90;;;;;;4951268;28;20050;-78
2021/07/17 01:06:26;;;;;;;48.22;27.30;;;17.30;99.90;;;;;;4950431;28;20047;-78
2021/07/17 01:08:53;;;;;;;44.78;26.67;;;17.40;99.90;;;;;;4964602;28;20610;-78
2021/07/17 01:11:20;;;;;;;47.25;25.98;;;17.30;99.90;;;;;;4947243;28;20053;-79
2021/07/17 01:13:47;;;;;;;54.70;28.38;;;17.30;99.90;;;;;;4948575;28;20055;-77
2021/07/17 01:16:19;;;;;;;56.15;28.40;;;17.30;99.90;;;;;;4945681;28;20062;-78
2021/07/17 01:18:47;;;;;;;44.42;25.73;;;17.20;99.90;;;;;;4931379;29;20039;-77
2021/07/17 01:21:17;;;;;;;55.75;26.42;;;17.30;99.90;;;;;;4931569;29;20047;-80
2021/07/17 01:23:45;;;;;;;44.28;27.50;;;17.20;99.90;;;;;;4948830;29;20165;-77
2021/07/17 01:26:19;;;;;;;47.50;27.95;;;17.30;99.90;;;;;;4943189;28;20043;-78
2021/07/17 01:28:46;;;;;;;54.37;28.23;;;17.20;99.90;;;;;;4966687;28;20055;-77
2021/07/17 01:31:21;;;;;;;49.28;26.10;;;17.10;99.90;;;;;;4949756;28;20457;-78
2021/07/17 01:34:01;;;;;;;45.30;27.67;;;17.10;99.90;;;;;;4922287;28;20204;-77
2021/07/17 01:36:28;;;;;;;55.05;27.85;;;17.00;99.90;;;;;;4927802;29;20146;-77
2021/07/17 01:38:55;;;;;;;61.13;29.00;;;17.00;99.90;;;;;;4944876;28;20059;-77
2021/07/17 01:41:22;;;;;;;49.88;26.35;;;17.10;99.90;;;;;;4941413;28;20055;-79
2021/07/17 01:43:51;;;;;;;66.63;29.50;;;17.00;99.90;;;;;;4941757;28;20053;-79
2021/07/17 01:46:18;;;;;;;51.60;27.75;;;17.10;99.90;;;;;;4946852;28;20500;-79
2021/07/17 01:48:52;;;;;;;53.85;27.35;;;17.00;99.90;;;;;;4923636;29;20058;-77
2021/07/17 01:51:20;;;;;;;52.97;28.30;;;17.10;99.90;;;;;;4941801;28;20177;-78
2021/07/17 01:53:48;;;;;;;53.75;28.48;;;17.10;99.90;;;;;;4965671;28;20614;-78
2021/07/17 01:56:16;;;;;;;59.10;27.73;;;17.10;99.90;;;;;;4948399;28;20150;-78
2021/07/17 01:58:43;;;;;;;54.42;27.42;;;17.00;99.90;;;;;;4951427;28;20045;-76
2021/07/17 02:01:10;;;;;;;54.40;26.95;;;17.00;99.90;;;;;;4966018;28;20055;-78
2021/07/17 02:03:46;;;;;;;57.75;28.60;;;17.00;99.90;;;;;;4934526;28;20097;-77
2021/07/17 02:06:21;;;;;;;50.95;28.77;;;17.10;99.90;;;;;;4949315;28;20224;-78
2021/07/17 02:08:48;;;;;;;52.70;27.15;;;16.80;99.90;;;;;;4949764;28;20070;-79
2021/07/17 02:11:15;;;;;;;57.53;29.13;;;16.70;99.90;;;;;;4952612;28;20046;-76
2021/07/17 02:13:42;;;;;;;52.67;28.08;;;16.80;99.90;;;;;;4949095;28;20057;-76
2021/07/17 02:16:09;;;;;;;56.90;29.98;;;16.80;99.90;;;;;;4941131;28;20074;-77
2021/07/17 02:18:37;;;;;;;49.55;27.23;;;16.80;99.90;;;;;;4931296;29;20039;-78
2021/07/17 02:21:07;;;;;;;41.92;26.27;;;16.80;99.90;;;;;;4947365;28;20523;-77
2021/07/17 02:23:35;;;;;;;56.67;27.23;;;16.80;99.90;;;;;;4945680;28;20130;-77
2021/07/17 02:26:04;;;;;;;53.28;26.15;;;16.80;99.90;;;;;;4943785;28;20450;-80
2021/07/17 02:28:30;;;;;;;63.47;28.80;;;16.80;99.90;;;;;;4933322;28;20242;-77
2021/07/17 02:30:57;;;;;;;60.17;28.33;;;16.70;99.90;;;;;;4933484;28;20058;-76
2021/07/17 02:33:25;;;;;;;59.97;28.45;;;16.70;99.90;;;;;;4943340;29;20051;-78
2021/07/17 02:35:52;;;;;;;59.33;27.45;;;16.80;99.90;;;;;;4947554;28;20047;-77
2021/07/17 02:38:19;;;;;;;55.65;28.75;;;16.80;99.90;;;;;;4915206;29;20086;-77
2021/07/17 02:40:46;;;;;;;61.25;27.63;;;16.90;99.90;;;;;;4928869;28;20050;-78
2021/07/17 02:43:13;;;;;;;60.63;28.83;;;16.90;99.90;;;;;;4944657;28;20714;-78
2021/07/17 02:45:40;;;;;;;65.07;28.83;;;16.80;99.90;;;;;;4945710;28;20058;-77
2021/07/17 02:48:07;;;;;;;53.50;27.77;;;16.80;99.90;;;;;;4929567;29;20138;-76
2021/07/17 02:50:37;;;;;;;58.25;28.05;;;16.70;99.90;;;;;;4945374;28;20131;-79
2021/07/17 02:53:08;;;;;;;56.67;27.90;;;16.80;99.90;;;;;;4940258;28;20058;-79
2021/07/17 02:55:41;;;;;;;51.75;27.85;;;16.70;99.90;;;;;;4932096;28;20074;-76
2021/07/17 02:58:09;;;;;;;61.22;28.20;;;16.70;99.90;;;;;;4946140;28;20122;-78
2021/07/17 03:00:37;;;;;;;56.60;27.40;;;16.70;99.90;;;;;;4965839;28;20129;-76
2021/07/17 03:03:11;;;;;;;50.97;25.15;;;16.70;99.90;;;;;;4948434;28;20114;-77
2021/07/17 03:05:39;;;;;;;54.60;25.40;;;16.60;99.90;;;;;;4948162;28;20078;-77
2021/07/17 03:08:06;;;;;;;54.38;26.75;;;16.50;99.90;;;;;;4949117;28;20200;-78
2021/07/17 03:10:33;;;;;;;58.28;26.83;;;16.50;99.90;;;;;;4929675;28;20062;-78
2021/07/17 03:13:00;;;;;;;51.00;24.70;;;16.60;99.90;;;;;;4966180;28;20043;-78
2021/07/17 03:15:27;;;;;;;55.50;25.80;;;16.50;99.90;;;;;;4962969;28;20058;-80
2021/07/17 03:17:54;;;;;;;50.30;23.98;;;16.50;99.90;;;;;;4928734;29;20081;-79
2021/07/17 03:20:21;;;;;;;56.97;25.48;;;16.50;99.90;;;;;;4945729;28;20071;-78
2021/07/17 03:22:48;;;;;;;45.53;24.73;;;16.50;99.90;;;;;;4928557;29;20054;-77
2021/07/17 03:25:15;;;;;;;54.33;26.00;;;16.50;99.90;;;;;;4933146;28;20035;-80
2021/07/17 03:27:42;;;;;;;51.40;25.02;;;16.40;99.90;;;;;;4948211;28;20058;-78
2021/07/17 03:30:09;;;;;;;49.25;25.10;;;16.40;99.90;;;;;;4948783;28;20191;-78
2021/07/17 03:32:37;;;;;;;57.03;26.45;;;16.40;99.90;;;;;;4936390;28;20652;-77
2021/07/17 03:35:05;;;;;;;51.55;25.38;;;16.40;99.90;;;;;;4928434;28;20059;-78
2021/07/17 03:37:32;;;;;;;60.35;27.17;;;16.40;99.90;;;;;;4929623;29;20066;-77
2021/07/17 03:39:59;;;;;;;55.13;28.30;;;16.40;99.90;;;;;;4946287;28;20142;-78
2021/07/17 03:42:26;;;;;;;57.00;26.95;;;16.40;99.90;;;;;;4935567;28;20101;-77
2021/07/17 03:44:53;;;;;;;53.80;26.98;;;16.30;99.90;;;;;;4937431;28;20102;-79
2021/07/17 03:47:20;;;;;;;59.55;26.42;;;16.40;99.90;;;;;;4927856;29;20043;-80
2021/07/17 03:49:47;;;;;;;60.17;28.38;;;16.40;99.90;;;;;;4945256;29;20054;-78
2021/07/17 03:52:14;;;;;;;56.97;28.85;;;16.50;99.90;;;;;;4947571;28;20070;-79
2021/07/17 03:54:41;;;;;;;69.03;30.50;;;16.50;99.90;;;;;;4946931;28;20141;-79
2021/07/17 03:57:08;;;;;;;66.43;31.80;;;16.40;99.90;;;;;;4948468;28;20133;-79
2021/07/17 03:59:37;;;;;;;64.38;32.72;;;16.40;99.90;;;;;;4949781;28;20537;-79
2021/07/17 04:02:04;;;;;;;71.35;31.30;;;16.20;99.90;;;;;;4951820;28;20245;-78
2021/07/17 04:04:40;;;;;;;67.18;31.08;;;16.20;99.90;;;;;;4962778;28;20080;-78
2021/07/17 04:07:10;;;;;;;76.78;31.90;;;16.10;99.90;;;;;;4932956;28;20039;-77
2021/07/17 04:09:38;;;;;;;79.00;33.75;;;16.20;99.90;;;;;;4948349;28;20047;-78
2021/07/17 04:12:05;;;;;;;69.53;34.33;;;16.20;99.90;;;;;;4963167;28;20074;-78
2021/07/17 04:14:32;;;;;;;57.88;32.55;;;16.20;99.90;;;;;;4960931;28;20074;-78
2021/07/17 04:16:59;;;;;;;67.38;31.15;;;16.20;99.90;;;;;;4951177;28;20480;-77
2021/07/17 04:19:26;;;;;;;61.97;30.58;;;16.30;99.90;;;;;;4948780;29;20106;-78
2021/07/17 04:21:53;;;;;;;63.72;32.35;;;16.30;99.90;;;;;;4949272;28;20055;-78
2021/07/17 04:24:27;;;;;;;61.40;29.55;;;16.20;99.90;;;;;;4950437;28;20047;-77
2021/07/17 04:27:10;;;;;;;64.47;30.30;;;16.20;99.90;;;;;;4929634;28;20059;-78
2021/07/17 04:29:37;;;;;;;60.33;30.45;;;16.20;99.90;;;;;;4949712;28;20050;-78
2021/07/17 04:32:04;;;;;;;68.25;30.63;;;16.30;99.90;;;;;;4950620;28;20054;-77
2021/07/17 04:34:32;;;;;;;65.95;33.53;;;16.30;99.90;;;;;;4961944;28;20122;-76
2021/07/17 04:36:59;;;;;;;74.93;32.10;;;16.10;99.90;;;;;;4951028;28;20060;-77
2021/07/17 04:39:26;;;;;;;71.10;34.13;;;16.00;99.90;;;;;;4950736;28;20097;-76
2021/07/17 04:42:03;;;;;;;63.25;33.40;;;16.10;99.90;;;;;;4962285;28;20062;-76
2021/07/17 04:44:31;;;;;;;65.88;31.90;;;16.00;99.90;;;;;;4940961;28;20074;-77
2021/07/17 04:46:57;;;;;;;67.75;34.88;;;16.00;99.90;;;;;;4952107;28;20051;-79
2021/07/17 04:49:24;;;;;;;65.78;32.95;;;16.00;99.90;;;;;;4946363;28;20059;-78
2021/07/17 04:51:52;;;;;;;70.70;32.28;;;16.10;99.90;;;;;;4915583;29;20059;-77
2021/07/17 04:54:19;;;;;;;69.68;33.65;;;16.10;99.90;;;;;;4949891;28;20536;-79
2021/07/17 04:56:49;;;;;;;65.40;32.97;;;16.10;99.90;;;;;;4966753;28;20047;-81
2021/07/17 04:59:23;;;;;;;55.55;31.80;;;16.10;99.90;;;;;;4953388;28;20126;-77
2021/07/17 05:01:50;;;;;;;61.90;35.30;;;16.10;99.90;;;;;;4964191;28;20055;-78
2021/07/17 05:04:17;;;;;;;66.10;34.05;;;16.10;99.90;;;;;;4948270;28;20058;-79
2021/07/17 05:06:44;;;;;;;60.72;32.05;;;16.10;99.90;;;;;;4953712;28;20436;-78
2021/07/17 05:09:11;;;;;;;55.58;28.48;;;16.20;99.90;;;;;;4948046;28;20105;-79
2021/07/17 05:11:39;;;;;;;66.13;32.22;;;16.10;99.90;;;;;;4947025;28;20066;-78
2021/07/17 05:14:06;;;;;;;62.42;34.40;;;16.10;99.90;;;;;;4959902;28;20058;-79
2021/07/17 05:16:33;;;;;;;57.83;32.47;;;16.10;99.90;;;;;;4949396;28;20055;-79
2021/07/17 05:19:01;;;;;;;60.92;31.45;;;16.10;99.90;;;;;;4914431;29;20063;-81
2021/07/17 05:21:27;;;;;;;64.30;31.65;;;16.10;99.90;;;;;;4946272;28;20316;-77
2021/07/17 05:23:55;;;;;;;59.20;30.80;;;16.10;99.90;;;;;;4931799;29;20547;-79
2021/07/17 05:26:22;;;;;;;54.55;29.17;;;16.10;99.90;;;;;;4926264;28;20293;-77
2021/07/17 05:28:49;;;;;;;65.30;31.70;;;16.10;99.90;;;;;;4965804;28;20058;-77
2021/07/17 05:31:18;;;;;;;61.15;33.35;;;16.10;99.90;;;;;;4965987;28;20093;-77
2021/07/17 05:33:45;;;;;;;67.25;32.20;;;16.10;99.90;;;;;;4965948;28;20183;-78
2021/07/17 05:36:12;;;;;;;64.07;31.90;;;16.00;99.90;;;;;;4936379;28;20214;-80
2021/07/17 05:38:47;;;;;;;59.65;33.13;;;16.00;99.90;;;;;;4930956;29;20380;-77
2021/07/17 05:41:14;;;;;;;67.85;34.50;;;16.10;99.90;;;;;;4926031;29;20563;-78
2021/07/17 05:43:41;;;;;;;60.60;34.13;;;16.10;99.90;;;;;;4925008;29;20057;-80
2021/07/17 05:46:08;;;;;;;58.05;31.20;;;16.20;99.90;;;;;;4930005;29;20098;-78
2021/07/17 05:48:35;;;;;;;62.83;30.35;;;16.30;99.90;;;;;;4931386;29;20055;-77
2021/07/17 05:51:03;;;;;;;71.65;33.72;;;16.40;99.90;;;;;;4930752;28;20307;-76
2021/07/17 05:53:30;;;;;;;59.15;32.22;;;16.50;99.90;;;;;;4930755;29;20485;-77
2021/07/17 05:55:56;;;;;;;57.50;29.42;;;16.40;99.90;;;;;;4940505;28;20067;-76
2021/07/17 05:58:37;;;;;;;55.70;31.45;;;16.40;99.90;;;;;;4927696;29;20052;-78
2021/07/17 06:01:07;;;;;;;55.30;30.90;;;16.50;99.90;;;;;;4911603;28;20429;-77
2021/07/17 06:03:34;;;;;;;56.85;29.50;;;16.70;99.90;;;;;;4927902;29;20055;-78
2021/07/17 06:06:02;;;;;;;59.17;28.42;;;16.70;99.90;;;;;;4909858;29;20138;-77
2021/07/17 06:08:29;;;;;;;63.85;31.25;;;16.70;99.90;;;;;;4926699;29;20059;-79
2021/07/17 06:10:56;;;;;;;67.50;29.38;;;16.80;99.90;;;;;;4941955;28;20107;-77
2021/07/17 06:13:23;;;;;;;51.20;28.02;;;16.70;99.90;;;;;;4927286;29;20047;-77
2021/07/17 06:15:52;;;;;;;52.58;27.73;;;16.70;99.90;;;;;;4944305;28;20051;-78
2021/07/17 06:18:24;;;;;;;50.00;29.50;;;16.70;99.90;;;;;;4922839;29;20054;-80
2021/07/17 06:20:51;;;;;;;56.08;30.25;;;16.80;99.90;;;;;;4929453;29;20047;-80
2021/07/17 06:23:18;;;;;;;63.95;28.38;;;16.80;99.90;;;;;;4929792;29;20750;-81
2021/07/17 06:25:51;;;;;;;55.50;30.80;;;16.70;99.90;;;;;;4937758;28;20055;-77
2021/07/17 06:28:29;;;;;;;65.18;31.65;;;16.60;99.90;;;;;;4943796;28;20078;-78
2021/07/17 06:30:56;;;;;;;64.93;32.50;;;16.70;99.90;;;;;;4929802;29;20436;-78
2021/07/17 06:33:23;;;;;;;65.95;33.75;;;16.60;99.90;;;;;;4946312;28;20106;-79
2021/07/17 06:35:50;;;;;;;73.63;32.28;;;16.60;99.90;;;;;;4945821;28;20052;-79
2021/07/17 06:38:17;;;;;;;64.75;33.25;;;16.60;99.90;;;;;;4939831;28;20089;-77
2021/07/17 06:40:44;;;;;;;76.38;35.63;;;16.50;99.90;;;;;;4963053;28;20054;-78
2021/07/17 06:43:12;;;;;;;75.72;35.55;;;16.60;99.90;;;;;;4949905;28;20058;-78
2021/07/17 06:45:51;;;;;;;63.72;34.83;;;16.70;99.90;;;;;;4931693;28;20079;-78
2021/07/17 06:48:24;;;;;;;;;;;16.60;99.90;;;;;;4930646;29;20098;-77
2021/07/17 06:50:51;;;;;;;77.00;35.47;;;16.50;99.90;;;;;;4930831;28;19923;-77
2021/07/17 06:53:18;;;;;;;73.80;36.30;;;16.50;99.90;;;;;;4942529;28;20118;-76
2021/07/17 06:55:45;;;;;;;75.07;37.00;;;16.60;99.90;;;;;;4959865;28;20153;-78
2021/07/17 06:58:19;;;;;;;65.38;34.97;;;16.60;99.90;;;;;;4949636;28;20051;-77
2021/07/17 07:00:46;;;;;;;76.70;34.83;;;16.60;99.90;;;;;;4947869;28;20539;-79
2021/07/17 07:03:13;;;;;;;70.03;34.97;;;16.60;99.90;;;;;;4949506;28;20046;-78
2021/07/17 07:05:40;;;;;;;80.30;35.88;;;16.60;99.90;;;;;;4948629;28;20125;-78
2021/07/17 07:08:07;;;;;;;63.75;34.38;;;16.60;99.90;;;;;;4965347;28;20149;-79
2021/07/17 07:10:35;;;;;;;75.43;32.95;;;16.70;99.90;;;;;;4954426;28;20047;-77
2021/07/17 07:13:15;;;;;;;70.20;35.85;;;16.60;99.90;;;;;;4949118;28;20027;-77
2021/07/17 07:15:46;;;;;;;66.28;32.15;;;16.60;99.90;;;;;;4949252;28;20054;-76
2021/07/17 07:18:14;;;;;;;61.38;33.22;;;16.70;99.90;;;;;;4932805;29;20061;-76
2021/07/17 07:20:44;;;;;;;57.40;31.17;;;16.60;99.90;;;;;;4946019;28;20134;-78
2021/07/17 07:23:22;;;;;;;65.68;33.10;;;16.60;99.90;;;;;;4937154;28;20523;-78
2021/07/17 07:25:52;;;;;;;68.75;32.80;;;16.60;99.90;;;;;;4963962;28;20047;-79
2021/07/17 07:28:22;;;;;;;73.60;32.28;;;16.50;99.90;;;;;;4938256;28;20110;-78
2021/07/17 07:30:49;;;;;;;61.95;31.30;;;16.50;99.90;;;;;;4937083;28;20051;-76
2021/07/17 07:33:16;;;;;;;64.45;30.50;;;16.60;99.90;;;;;;4956554;28;20121;-78
2021/07/17 07:35:43;;;;;;;65.30;31.35;;;16.60;99.90;;;;;;4945251;28;20055;-78
2021/07/17 07:38:14;;;;;;;60.78;29.02;;;16.70;99.90;;;;;;4946348;28;20387;-78
2021/07/17 07:40:42;;;;;;;53.80;28.90;;;16.70;99.90;;;;;;4912947;29;20061;-79
2021/07/17 07:43:10;;;;;;;69.15;29.90;;;16.80;99.90;;;;;;4926041;28;20057;-80
2021/07/17 07:45:37;;;;;;;61.85;29.75;;;16.80;99.90;;;;;;4932266;28;20050;-78
2021/07/17 07:48:05;;;;;;;57.25;29.20;;;16.90;99.90;;;;;;4927360;29;20149;-77
2021/07/17 07:50:41;;;;;;;55.53;28.75;;;16.80;99.90;;;;;;4948556;28;20070;-78
2021/07/17 07:53:09;;;;;;;58.55;30.67;;;16.80;99.90;;;;;;4932947;28;20051;-78
2021/07/17 07:55:36;;;;;;;67.28;28.65;;;16.70;99.90;;;;;;4959584;28;20451;-79
2021/07/17 07:58:03;;;;;;;57.38;29.45;;;16.60;99.90;;;;;;4968397;28;20476;-78
2021/07/17 08:00:30;;;;;;;66.47;29.58;;;16.80;99.90;;;;;;4967657;28;20187;-78
2021/07/17 08:02:58;;;;;;;59.55;29.35;;;16.70;99.90;;;;;;4952166;28;20039;-76
2021/07/17 08:05:25;;;;;;;58.88;28.90;;;16.80;99.90;;;;;;4967671;28;20481;-78
2021/07/17 08:07:53;;;;;;;46.78;27.00;;;16.70;99.90;;;;;;4953500;28;20082;-79
2021/07/17 08:10:22;;;;;;;49.67;28.63;;;16.80;99.90;;;;;;4968203;28;20055;-78
2021/07/17 08:12:50;;;;;;;59.45;28.25;;;16.80;99.90;;;;;;4950672;28;20059;-79
2021/07/17 08:15:21;;;;;;;52.92;27.35;;;16.90;99.90;;;;;;4932234;28;20138;-79
2021/07/17 08:17:48;;;;;;;50.60;27.27;;;17.00;99.90;;;;;;4932003;28;20511;-77
2021/07/17 08:20:16;;;;;;;60.42;30.20;;;17.10;99.90;;;;;;4947747;28;20483;-77
2021/07/17 08:22:43;;;;;;;61.95;30.33;;;17.10;99.90;;;;;;4947801;28;20043;-75
2021/07/17 08:25:11;;;;;;;66.47;28.92;;;17.20;99.90;;;;;;4952013;28;20058;-76
2021/07/17 08:27:38;;;;;;;63.15;27.95;;;17.30;99.90;;;;;;4963825;28;20109;-76
2021/07/17 08:30:06;;;;;;;56.97;29.63;;;17.30;99.90;;;;;;4958871;28;20078;-76
2021/07/17 08:32:50;;;;;;;60.92;28.42;;;17.30;99.90;;;;;;4967475;28;20051;-76
2021/07/17 08:35:17;;;;;;;55.85;28.25;;;17.40;99.90;;;;;;4924770;28;20046;-75
2021/07/17 08:37:44;;;;;;;51.35;26.70;;;17.40;99.90;;;;;;4930933;29;20047;-76
2021/07/17 08:40:11;;;;;;;54.88;26.85;;;17.30;99.90;;;;;;4931739;28;20043;-75
2021/07/17 08:42:47;;;;;;;56.67;28.05;;;17.40;99.90;;;;;;4948754;28;20055;-76
2021/07/17 08:45:14;;;;;;;66.85;28.08;;;17.50;99.90;;;;;;4930138;28;20055;-76
2021/07/17 08:47:43;;;;;;;54.78;26.52;;;17.40;99.90;;;;;;4947274;28;20079;-77
2021/07/17 08:50:16;;;;;;;63.47;28.35;;;17.50;99.90;;;;;;4947769;29;20075;-76
2021/07/17 08:52:44;;;;;;;56.92;28.60;;;17.40;99.90;;;;;;4948254;28;20063;-75
2021/07/17 08:55:12;;;;;;;48.33;25.98;;;17.40;99.90;;;;;;4954434;28;20042;-76
2021/07/17 08:57:41;;;;;;;55.15;25.33;;;17.40;99.90;;;;;;4950919;28;20054;-76
2021/07/17 09:00:21;;;;;;;54.35;28.60;;;17.50;99.90;;;;;;4966759;28;20054;-75
2021/07/17 09:02:52;;;;;;;61.40;27.67;;;17.40;99.90;;;;;;4949957;28;20066;-76
2021/07/17 09:05:22;;;;;;;56.45;28.42;;;17.50;99.90;;;;;;4948548;28;20106;-76
2021/07/17 09:07:50;;;;;;;62.30;27.33;;;17.50;99.90;;;;;;4954608;28;20051;-76
2021/07/17 09:10:36;;;;;;;51.03;25.83;;;17.70;99.90;;;;;;4969267;28;20050;-76
2021/07/17 09:13:12;;;;;;;59.05;27.88;;;17.70;99.90;;;;;;4967024;28;20468;-76
2021/07/17 09:15:54;;;;;;;52.88;26.27;;;17.60;99.90;;;;;;4959335;28;20059;-76
2021/07/17 09:18:22;;;;;;;57.50;27.20;;;17.70;99.90;;;;;;4953056;28;20043;-76
2021/07/17 09:21:17;;;;;;;52.40;26.23;;;17.80;99.90;;;;;;4933585;29;20043;-76
2021/07/17 09:23:53;;;;;;;44.38;24.17;;;17.90;99.90;;;;;;4963662;28;20059;-77
2021/07/17 09:26:28;;;;;;;54.20;26.67;;;18.10;99.90;;;;;;4950422;28;20122;-78
2021/07/17 09:29:07;;;;;;;48.83;24.80;;;18.30;99.90;;;;;;4965068;28;20458;-77
2021/07/17 09:32:00;;;;;;;39.05;24.08;;;18.20;99.90;;;;;;4933670;28;20077;-76
2021/07/17 09:34:33;;;;;;;45.58;23.35;;;18.10;99.90;;;;;;4941402;29;20052;-76
2021/07/17 09:37:12;;;;;;;47.20;23.25;;;18.10;99.90;;;;;;4942923;28;20419;-76
2021/07/17 09:39:45;;;;;;;38.63;22.52;;;18.20;99.90;;;;;;4959642;28;20560;-76
2021/07/17 09:42:15;;;;;;;43.67;23.48;;;18.40;99.90;;;;;;4950156;28;20110;-76
2021/07/17 09:44:47;;;;;;;40.92;22.23;;;18.40;99.90;;;;;;4919330;29;20511;-76
2021/07/17 09:47:26;;;;;;;40.55;21.27;;;18.50;99.90;;;;;;4933350;28;20141;-76
2021/07/17 09:50:12;;;;;;;40.42;20.45;;;18.70;99.90;;;;;;4946554;28;20063;-76
2021/07/17 09:52:44;;;;;;;36.63;19.90;;;18.80;99.90;;;;;;4947957;28;20621;-76
2021/07/17 09:55:13;;;;;;;40.25;19.83;;;19.10;99.90;;;;;;4949858;28;20503;-76
2021/07/17 09:57:40;;;;;;;42.22;22.05;;;19.20;99.90;;;;;;4965316;28;20518;-76
2021/07/17 10:00:08;;;;;;;45.47;21.13;;;19.30;99.90;;;;;;4967129;28;20038;-76
2021/07/17 10:02:52;;;;;;;42.78;21.27;;;19.40;99.90;;;;;;4965498;28;20046;-78
2021/07/17 10:05:36;;;;;;;40.67;21.17;;;19.40;99.90;;;;;;4965341;28;20639;-75
2021/07/17 10:08:14;;;;;;;39.40;20.52;;;19.50;99.90;;;;;;4949391;28;20061;-77
2021/07/17 10:10:44;;;;;;;39.05;20.38;;;19.50;99.90;;;;;;4966995;28;20050;-77
2021/07/17 10:13:11;;;;;;;39.53;18.85;;;19.70;99.90;;;;;;4943061;28;20449;-77
2021/07/17 10:15:39;;;;;;;49.17;20.17;;;19.90;99.90;;;;;;4931477;28;20066;-78
2021/07/17 10:18:24;;;;;;;29.75;19.58;;;20.10;99.90;;;;;;4945204;29;20095;-78
2021/07/17 10:20:52;;;;;;;39.95;19.38;;;20.30;99.90;;;;;;4942792;28;20113;-77
2021/07/17 10:23:20;;;;;;;42.20;20.40;;;20.50;99.90;;;;;;4932598;28;20085;-78
2021/07/17 10:25:47;;;;;;;42.03;18.85;;;20.60;99.90;;;;;;4938939;28;20057;-77
2021/07/17 10:28:14;;;;;;;39.33;18.83;;;20.50;99.90;;;;;;4933118;28;20117;-77
2021/07/17 10:30:42;;;;;;;36.10;19.02;;;20.70;99.90;;;;;;4950606;28;20047;-80
2021/07/17 10:33:10;;;;;;;40.67;20.17;;;21.00;99.90;;;;;;4963259;28;20547;-81
2021/07/17 10:35:38;;;;;;;37.03;18.30;;;21.00;99.90;;;;;;4930158;29;20042;-82
2021/07/17 10:38:06;;;;;;;32.80;18.52;;;21.10;99.90;;;;;;4946940;28;20047;-82
2021/07/17 10:40:34;;;;;;;30.15;17.20;;;21.30;99.90;;;;;;4930539;28;20098;-81
2021/07/17 10:43:03;;;;;;;31.73;17.15;;;21.60;99.90;;;;;;4931758;29;20051;-82
2021/07/17 10:45:36;;;;;;;40.53;18.85;;;21.50;99.90;;;;;;4930563;28;20595;-81
2021/07/17 10:48:34;;;;;;;37.80;18.63;;;21.70;99.90;;;;;;4930957;28;20564;-83
2021/07/17 10:51:22;;;;;;;33.05;17.63;;;21.90;99.90;;;;;;4940411;28;20055;-81
2021/07/17 10:53:56;;;;;;;31.23;16.58;;;22.00;99.90;;;;;;4921350;28;20054;-81
2021/07/17 10:56:34;;;;;;;29.13;17.27;;;22.30;99.90;;;;;;4947921;28;20054;-80
2021/07/17 10:59:16;;;;;;;33.35;17.83;;;22.50;99.90;;;;;;4959023;28;20117;-82
2021/07/17 11:02:07;;;;;;;30.05;17.40;;;22.40;99.90;;;;;;4938078;29;20043;-81
2021/07/17 11:04:57;;;;;;;28.37;17.07;;;22.30;99.90;;;;;;4938718;28;20114;-83
2021/07/17 11:07:34;;;;;;;30.98;16.75;;;22.10;99.90;;;;;;4953493;28;20051;-82
2021/07/17 11:10:14;;;;;;;26.13;17.05;;;22.40;99.90;;;;;;4941214;29;20063;-81
2021/07/17 11:12:55;;;;;;;29.88;16.77;;;22.80;99.90;;;;;;4942877;29;20043;-81
2021/07/17 11:15:24;;;;;;;30.23;17.40;;;23.10;99.90;;;;;;4940735;28;20043;-80
2021/07/17 11:17:54;;;;;;;33.15;17.58;;;23.10;99.90;;;;;;4940561;29;20059;-81
2021/07/17 11:20:35;;;;;;;27.92;17.73;;;23.00;99.90;;;;;;4925941;28;20043;-83
2021/07/17 11:23:19;;;;;;;25.65;17.73;;;23.00;99.90;;;;;;4939780;28;20043;-82
2021/07/17 11:26:14;;;;;;;29.55;16.92;;;23.20;99.90;;;;;;4954668;28;20047;-82
2021/07/17 11:28:51;;;;;;;25.90;15.77;;;23.30;99.90;;;;;;4949832;28;20035;-82
2021/07/17 11:31:29;;;;;;;23.92;16.25;;;23.30;99.90;;;;;;4921428;28;20047;-82
2021/07/17 11:34:32;;;;;;;28.25;17.55;;;23.60;99.90;;;;;;4917700;29;20095;-82
2021/07/17 11:37:09;;;;;;;26.83;16.98;;;23.90;99.90;;;;;;4929915;29;20055;-82
2021/07/17 11:39:43;;;;;;;25.70;17.80;;;24.10;99.90;;;;;;4921836;29;20137;-82
2021/07/17 11:42:20;;;;;;;24.48;17.80;;;24.20;99.90;;;;;;4917114;28;20048;-81
2021/07/17 11:44:57;;;;;;;24.75;16.70;;;24.20;99.90;;;;;;4917021;29;20162;-82
2021/07/17 11:47:30;;;;;;;25.60;18.08;;;24.40;99.90;;;;;;4934566;29;20043;-81
2021/07/17 11:50:03;;;;;;;25.95;17.20;;;24.60;99.90;;;;;;4937464;28;20539;-82
2021/07/17 11:52:37;;;;;;;24.10;16.60;;;24.80;99.90;;;;;;4934536;29;20047;-82
2021/07/17 11:55:14;;;;;;;22.45;15.27;;;25.00;99.90;;;;;;4953962;28;20719;-82
2021/07/17 11:57:49;;;;;;;20.80;13.90;;;25.10;99.90;;;;;;4954588;28;20053;-82
2021/07/17 12:00:25;;;;;;;20.52;15.23;;;25.60;99.90;;;;;;4933909;28;20072;-81
2021/07/17 12:02:58;;;;;;;26.20;16.08;;;25.30;99.90;;;;;;4954566;28;20073;-82
2021/07/17 12:05:36;;;;;;;25.27;16.60;;;25.00;99.90;;;;;;4964210;28;20662;-82
2021/07/17 12:08:08;;;;;;;;;;;24.50;99.90;;;;;;4935941;29;20054;-82
2021/07/17 12:11:01;;;;;;;24.13;16.58;;;24.20;99.90;;;;;;4924497;28;19933;-82
2021/07/17 12:13:34;;;;;;;25.05;14.95;;;24.40;99.90;;;;;;4940880;28;20066;-84
2021/07/17 12:16:05;;;;;;;24.80;14.75;;;24.40;99.90;;;;;;4941256;28;20068;-83
2021/07/17 12:18:34;;;;;;;20.88;14.77;;;24.60;99.90;;;;;;4927329;29;20107;-84
2021/07/17 12:21:17;;;;;;;22.25;14.75;;;24.70;99.90;;;;;;4935189;28;20128;-84
2021/07/17 12:23:58;;;;;;;22.42;15.48;;;24.80;99.90;;;;;;4948401;28;20052;-82
2021/07/17 12:26:30;;;;;;;23.63;14.23;;;24.70;99.90;;;;;;4946369;28;20035;-79
2021/07/17 12:29:05;;;;;;;21.38;14.68;;;24.60;99.90;;;;;;4930133;28;20050;-80
2021/07/17 12:31:33;;;;;;;17.35;13.63;;;24.70;99.90;;;;;;4963898;28;20153;-81
2021/07/17 12:34:09;;;;;;;15.80;14.00;;;25.00;99.90;;;;;;4935971;29;20052;-81
2021/07/17 12:36:41;;;;;;;18.52;12.40;;;25.30;99.90;;;;;;4912344;28;20066;-81
2021/07/17 12:39:08;;;;;;;20.42;14.00;;;25.70;99.90;;;;;;4968190;28;20098;-80
2021/07/17 12:41:36;;;;;;;15.93;12.50;;;25.30;99.90;;;;;;4951315;28;20086;-80
2021/07/17 12:44:16;;;;;;;16.60;13.02;;;25.00;99.90;;;;;;4938562;28;20146;-81
2021/07/17 12:46:48;;;;;;;14.77;13.00;;;24.70;99.90;;;;;;4920272;29;20055;-82